Time;durP1;ratioP1;P1;durP2;ratioP2;P2;SDS_P1;SDS_P2;PMS_P1;PMS_P2;Temp;Humidity;BMP_temperature;BMP_pressure;BME280_temperature;BME280_humidity;BME280_pressure;Samples;Min_cycle;Max_cycle;Signal;HPM_P1;HPM_P2
2023/03/20 00:00:27;;;;;;;5.80;5.30;;;;;;;9.38;100.00;153768.84;5094873;28;20525;-84
2023/03/20 00:02:54;;;;;;;5.43;4.93;;;;;;;9.41;100.00;153775.31;5045433;28;20459;-84
2023/03/20 00:05:23;;;;;;;6.07;5.30;;;;;;;9.38;100.00;153768.84;5079406;28;20453;-85
2023/03/20 00:07:56;;;;;;;8.33;6.80;;;;;;;9.37;100.00;153764.97;5084985;28;20491;-84
2023/03/20 00:10:26;;;;;;;6.07;5.30;;;;;;;9.44;100.00;153783.06;5080182;28;20509;-84
2023/03/20 00:12:52;;;;;;;6.20;5.60;;;;;;;9.44;100.00;153784.38;5078974;28;20466;-84
2023/03/20 00:15:26;;;;;;;5.70;5.20;;;;;;;9.38;100.00;153767.53;5078878;28;20474;-84
2023/03/20 00:17:53;;;;;;;7.30;6.30;;;;;;;9.42;100.00;153777.91;5064063;28;20467;-84
2023/03/20 00:20:21;;;;;;;7.73;6.93;;;;;;;9.42;100.00;153777.91;5069230;28;20466;-85
2023/03/20 00:22:47;;;;;;;6.67;5.97;;;;;;;9.37;100.00;153766.22;5054173;28;20446;-85
2023/03/20 00:25:17;;;;;;;6.50;5.77;;;;;;;9.36;100.00;153763.66;5069198;28;20485;-85
2023/03/20 00:27:44;;;;;;;7.00;6.20;;;;;;;9.36;100.00;153763.66;5066412;28;20538;-85
2023/03/20 00:30:21;;;;;;;6.63;6.03;;;;;;;9.34;100.00;153758.50;5083776;28;20484;-85
2023/03/20 00:32:48;;;;;;;7.07;6.37;;;;;;;9.29;100.00;153745.59;5086846;28;20519;-84
2023/03/20 00:35:20;;;;;;;6.83;6.13;;;;;;;9.30;100.00;153748.13;5093425;28;20806;-85
2023/03/20 00:37:47;;;;;;;6.10;5.33;;;;;;;9.29;100.00;153745.59;5062860;28;20485;-84
2023/03/20 00:40:16;;;;;;;6.43;5.83;;;;;;;9.30;100.00;153748.13;5084641;28;20475;-85
2023/03/20 00:42:43;;;;;;;6.67;5.97;;;;;;;9.30;100.00;153746.84;5077806;28;20843;-85
2023/03/20 00:45:13;;;;;;;7.40;5.57;;;;;;;9.26;100.00;153736.50;5055930;28;20446;-84
2023/03/20 00:47:40;;;;;;;5.80;5.30;;;;;;;9.26;100.00;153736.50;5081223;28;20451;-85
2023/03/20 00:50:11;;;;;;;7.10;6.27;;;;;;;9.26;100.00;153737.81;5051873;28;20484;-85
2023/03/20 00:52:38;;;;;;;6.97;6.03;;;;;;;9.25;100.00;153735.22;5068969;28;20527;-84
2023/03/20 00:55:05;;;;;;;7.57;5.93;;;;;;;9.22;100.00;153727.44;5059000;28;20462;-85
2023/03/20 00:57:40;;;;;;;6.40;5.80;;;;;;;9.22;100.00;153726.13;5051614;28;20461;-85
2023/03/20 01:00:08;;;;;;;6.40;5.73;;;;;;;9.16;100.00;153711.91;5078523;28;20810;-85
2023/03/20 01:02:36;;;;;;;6.80;6.10;;;;;;;9.11;100.00;153698.97;5060050;28;21183;-85
2023/03/20 01:05:04;;;;;;;7.10;6.43;;;;;;;9.09;100.00;153693.81;5070155;28;20459;-85
2023/03/20 01:07:31;;;;;;;5.60;5.10;;;;;;;9.09;100.00;153695.13;5055870;28;20448;-85
2023/03/20 01:09:58;;;;;;;7.93;5.37;;;;;;;9.12;100.00;153701.59;5072685;28;20584;-84
2023/03/20 01:12:24;;;;;;;6.37;5.77;;;;;;;9.11;100.00;153698.97;5075781;28;20531;-84
2023/03/20 01:14:55;;;;;;;6.30;5.70;;;;;;;9.10;100.00;153696.41;5069159;28;20455;-84
2023/03/20 01:17:24;;;;;;;5.53;5.03;;;;;;;9.05;100.00;153683.50;5086914;28;20433;-84
2023/03/20 01:19:51;;;;;;;6.00;5.40;;;;;;;9.07;100.00;153688.66;5035784;28;20462;-84
2023/03/20 01:22:18;;;;;;;7.20;5.93;;;;;;;9.02;100.00;153677.03;5054572;28;20523;-84
2023/03/20 01:24:45;;;;;;;6.20;5.23;;;;;;;8.98;100.00;153666.66;5064025;28;20458;-84
2023/03/20 01:27:14;;;;;;;5.57;5.03;;;;;;;8.98;100.00;153666.66;5069236;28;20492;-84
2023/03/20 01:29:41;;;;;;;5.43;4.93;;;;;;;8.95;100.00;153658.91;5049958;28;20835;-84
2023/03/20 01:32:12;;;;;;;5.63;5.00;;;;;;;8.95;100.00;153657.59;5062460;28;20463;-84
2023/03/20 01:34:39;;;;;;;4.67;4.17;;;;;;;8.94;100.00;153656.34;5077784;28;20872;-84
2023/03/20 01:37:11;;;;;;;5.97;4.70;;;;;;;8.91;100.00;153647.28;5053346;28;20976;-84
2023/03/20 01:39:38;;;;;;;5.10;4.60;;;;;;;8.90;100.00;153644.66;5067232;28;20866;-84
2023/03/20 01:42:06;;;;;;;5.27;4.80;;;;;;;8.91;100.00;153647.28;5066645;28;20817;-85
2023/03/20 01:44:35;;;;;;;6.57;4.60;;;;;;;8.91;100.00;153647.28;5054436;28;20493;-85
2023/03/20 01:47:03;;;;;;;4.87;4.00;;;;;;;8.83;100.00;153627.88;5072017;28;21408;-84
2023/03/20 01:50:07;;;;;;;5.03;4.53;;;;;;;8.84;100.00;153629.19;5041530;28;20447;-84
2023/03/20 01:52:35;;;;;;;6.53;4.30;;;;;;;8.89;100.00;153642.13;5071976;28;20793;-85
2023/03/20 01:55:02;;;;;;;4.40;4.00;;;;;;;8.86;100.00;153634.34;5051736;28;20458;-85
2023/03/20 01:57:30;;;;;;;4.93;4.47;;;;;;;8.80;100.00;153620.13;5059684;28;20451;-84
2023/03/20 02:00:02;;;;;;;4.70;4.20;;;;;;;8.84;100.00;153630.44;5052646;28;20579;-84
2023/03/20 02:02:32;;;;;;;4.73;4.07;;;;;;;8.84;100.00;153630.44;5067387;28;20521;-84
2023/03/20 02:05:02;;;;;;;4.10;3.70;;;;;;;8.86;100.00;153634.34;5055337;28;20456;-84
2023/03/20 02:07:30;;;;;;;3.83;3.33;;;;;;;8.84;100.00;153630.44;5074837;28;20453;-84
2023/03/20 02:10:09;;;;;;;3.63;3.27;;;;;;;8.83;100.00;153626.59;5046295;28;20581;-84
2023/03/20 02:12:43;;;;;;;3.50;3.10;;;;;;;8.83;100.00;153626.59;5050462;28;20463;-84
2023/03/20 02:15:14;;;;;;;5.20;4.70;;;;;;;8.86;100.00;153634.34;5032145;28;20459;-85
2023/03/20 02:18:00;;;;;;;4.97;4.47;;;;;;;8.83;100.00;153626.59;5049967;28;20462;-84
2023/03/20 02:20:37;;;;;;;4.23;3.37;;;;;;;8.85;100.00;153633.03;5028927;28;20440;-84
2023/03/20 02:23:36;;;;;;;4.33;3.93;;;;;;;8.83;100.00;153626.59;5050000;28;20432;-85
2023/03/20 02:26:18;;;;;;;3.80;3.40;;;;;;;8.80;100.00;153618.81;5043388;28;20444;-84
2023/03/20 02:29:09;;;;;;;3.67;3.23;;;;;;;8.78;100.00;153614.97;5024660;28;20455;-85
2023/03/20 02:31:59;;;;;;;3.00;2.70;;;;;;;8.79;100.00;153616.25;5047685;28;20493;-84
2023/03/20 02:34:54;;;;;;;2.80;2.60;;;;;;;8.84;100.00;153630.44;5010331;28;20452;-84
2023/03/20 02:37:42;;;;;;;2.30;2.10;;;;;;;8.82;100.00;153625.28;5040568;28;20502;-84
2023/03/20 02:40:17;;;;;;;2.50;2.30;;;;;;;8.82;100.00;153623.97;5064226;28;20454;-84
2023/03/20 02:42:47;;;;;;;2.80;2.20;;;;;;;8.79;100.00;153616.25;5065803;28;20451;-84
2023/03/20 02:45:17;;;;;;;1.80;1.57;;;;;;;8.72;100.00;153598.13;5044790;28;20509;-84
2023/03/20 02:47:50;;;;;;;1.90;1.70;;;;;;;8.72;100.00;153598.13;5062956;28;20538;-84
2023/03/20 02:50:24;;;;;;;2.27;1.70;;;;;;;8.71;100.00;153595.56;5057519;28;20454;-84
2023/03/20 02:53:00;;;;;;;3.20;1.43;;;;;;;8.73;100.00;153602.03;5043897;28;20501;-84
2023/03/20 02:55:32;;;;;;;1.60;1.20;;;;;;;8.75;100.00;153607.19;5055974;28;20455;-84
2023/03/20 02:58:04;;;;;;;1.40;1.20;;;;;;;8.78;100.00;153613.66;5025670;28;20541;-84
2023/03/20 03:00:35;;;;;;;1.43;1.30;;;;;;;8.73;100.00;153600.72;5054715;28;20452;-84
2023/03/20 03:03:06;;;;;;;2.20;1.63;;;;;;;8.73;100.00;153600.72;5032817;28;20437;-84
2023/03/20 03:05:37;;;;;;;1.57;1.30;;;;;;;8.72;100.00;153599.44;5059852;28;20488;-84
2023/03/20 03:08:06;;;;;;;1.50;1.20;;;;;;;8.72;100.00;153598.13;5030698;28;20475;-84
2023/03/20 03:10:36;;;;;;;1.30;1.17;;;;;;;8.70;100.00;153592.97;5024829;28;20504;-84
2023/03/20 03:13:05;;;;;;;1.80;1.27;;;;;;;8.69;100.00;153591.66;5025242;28;20469;-85
2023/03/20 03:15:34;;;;;;;4.07;1.13;;;;;;;8.78;100.00;153613.66;5030861;28;20879;-85
2023/03/20 03:18:02;;;;;;;1.53;1.43;;;;;;;8.70;100.00;153594.28;5035942;28;20978;-84
2023/03/20 03:20:31;;;;;;;1.77;1.33;;;;;;;8.69;100.00;153591.66;5027131;28;20456;-85
2023/03/20 03:22:59;;;;;;;1.50;1.23;;;;;;;8.70;100.00;153592.97;5029815;28;20432;-84
2023/03/20 03:25:31;;;;;;;1.50;1.03;;;;;;;8.67;100.00;153585.22;5023317;28;20452;-84
2023/03/20 03:28:04;;;;;;;1.63;1.10;;;;;;;8.69;100.00;153590.38;5047967;28;20440;-84
2023/03/20 03:30:33;;;;;;;1.63;1.20;;;;;;;8.70;100.00;153592.97;5033977;28;20516;-84
2023/03/20 03:33:09;;;;;;;1.50;1.10;;;;;;;8.67;100.00;153585.22;5046467;28;20464;-84
2023/03/20 03:35:36;;;;;;;1.40;1.10;;;;;;;8.69;100.00;153591.66;5029560;28;20957;-84
2023/03/20 03:38:10;;;;;;;1.47;1.13;;;;;;;8.70;100.00;153592.97;5009199;28;20547;-84
2023/03/20 03:40:43;;;;;;;1.50;1.20;;;;;;;8.64;100.00;153577.44;5011211;28;20457;-84
2023/03/20 03:43:16;;;;;;;1.37;1.20;;;;;;;8.62;100.00;153573.59;4998106;28;20498;-84
2023/03/20 03:45:47;;;;;;;1.60;1.30;;;;;;;8.61;100.00;153569.69;5028082;28;20463;-84
2023/03/20 03:48:17;;;;;;;1.97;1.20;;;;;;;8.61;100.00;153570.97;5028401;28;20942;-85
2023/03/20 03:50:48;;;;;;;1.20;1.00;;;;;;;8.62;100.00;153572.28;5028954;28;20441;-84
2023/03/20 03:53:18;;;;;;;1.80;1.23;;;;;;;8.63;100.00;153576.13;5039899;28;20476;-84
2023/03/20 03:55:50;;;;;;;1.50;1.13;;;;;;;8.61;100.00;153569.69;5022508;28;20459;-84
2023/03/20 03:58:19;;;;;;;1.53;1.10;;;;;;;8.57;100.00;153561.97;5021473;28;20486;-84
2023/03/20 04:00:49;;;;;;;1.83;1.40;;;;;;;8.57;100.00;153561.97;5043026;28;20488;-84
2023/03/20 04:03:17;;;;;;;2.20;1.23;;;;;;;8.54;100.00;153554.19;5051742;28;20535;-84
2023/03/20 04:05:46;;;;;;;2.80;1.43;;;;;;;8.55;100.00;153556.75;5025938;28;20567;-84
2023/03/20 04:08:15;;;;;;;1.70;1.30;;;;;;;8.57;100.00;153560.66;5031506;28;20440;-84
2023/03/20 04:10:41;;;;;;;3.30;1.83;;;;;;;8.56;100.00;153558.06;5042264;28;20486;-84
2023/03/20 04:13:10;;;;;;;3.80;1.43;;;;;;;8.53;100.00;153550.28;5030365;28;20464;-84
2023/03/20 04:15:37;;;;;;;2.20;1.73;;;;;;;8.50;100.00;153542.53;5040617;28;20458;-84
2023/03/20 04:18:06;;;;;;;1.60;1.40;;;;;;;8.43;100.00;153525.75;5032530;28;20522;-84
2023/03/20 04:20:33;;;;;;;1.47;1.23;;;;;;;8.46;100.00;153533.53;5043679;28;20462;-84
2023/03/20 04:23:00;;;;;;;2.40;1.47;;;;;;;8.42;100.00;153523.16;5082101;28;20458;-84
2023/03/20 04:25:27;;;;;;;1.60;1.27;;;;;;;8.46;100.00;153532.22;5034011;28;20450;-84
2023/03/20 04:27:56;;;;;;;1.87;1.23;;;;;;;8.40;100.00;153516.69;5071200;28;20988;-84
2023/03/20 04:30:40;;;;;;;3.30;1.10;;;;;;;8.38;100.00;153512.84;5043541;28;20853;-84
2023/03/20 04:33:17;;;;;;;2.13;0.87;;;;;;;8.50;100.00;153542.53;5077403;28;20459;-84
2023/03/20 04:36:05;;;;;;;1.70;1.20;;;;;;;8.43;100.00;153524.47;5037527;28;20427;-84
2023/03/20 04:38:32;;;;;;;1.53;1.20;;;;;;;8.40;100.00;153518.00;5045024;28;20473;-84
2023/03/20 04:41:00;;;;;;;1.50;1.17;;;;;;;8.36;100.00;153507.69;5040228;28;20539;-84
2023/03/20 04:43:27;;;;;;;1.83;1.20;;;;;;;8.38;100.00;153511.53;5074213;28;20438;-84
2023/03/20 04:45:55;;;;;;;1.70;1.30;;;;;;;8.38;100.00;153511.53;5063906;28;20462;-84
2023/03/20 04:48:22;;;;;;;1.30;0.97;;;;;;;8.38;100.00;153511.53;5049156;28;20825;-83
2023/03/20 04:50:49;;;;;;;1.67;1.30;;;;;;;8.39;100.00;153515.38;5072938;28;20466;-84
2023/03/20 04:53:19;;;;;;;1.67;1.30;;;;;;;8.38;100.00;153512.84;5056852;28;20473;-84
2023/03/20 04:55:50;;;;;;;1.63;1.33;;;;;;;8.33;100.00;153499.91;5058864;28;20446;-84
2023/03/20 04:58:17;;;;;;;1.77;1.30;;;;;;;8.32;100.00;153497.31;5053932;28;20451;-84
2023/03/20 05:00:44;;;;;;;1.90;1.17;;;;;;;8.29;100.00;153488.25;5037086;28;20451;-84
2023/03/20 05:03:12;;;;;;;1.23;1.00;;;;;;;8.25;100.00;153479.19;5056131;28;20921;-84
2023/03/20 05:05:40;;;;;;;1.63;1.27;;;;;;;8.26;100.00;153481.75;5030828;28;20459;-84
2023/03/20 05:08:07;;;;;;;1.40;1.10;;;;;;;8.26;100.00;153481.75;5043988;28;20484;-84
2023/03/20 05:10:36;;;;;;;1.60;1.30;;;;;;;8.23;100.00;153474.03;5041136;28;20610;-84
2023/03/20 05:13:19;;;;;;;1.30;1.17;;;;;;;8.23;100.00;153472.72;5047419;28;20464;-84
2023/03/20 05:16:03;;;;;;;1.90;1.30;;;;;;;8.28;100.00;153487.00;5033114;28;20473;-84
2023/03/20 05:18:57;;;;;;;1.70;1.30;;;;;;;8.29;100.00;153488.25;5038135;28;20510;-84
2023/03/20 05:21:43;;;;;;;1.63;1.30;;;;;;;8.28;100.00;153487.00;5030313;28;20491;-84
2023/03/20 05:24:28;;;;;;;3.77;1.70;;;;;;;8.24;100.00;153476.59;5039674;28;20998;-84
2023/03/20 05:27:10;;;;;;;2.00;1.80;;;;;;;8.20;100.00;153466.28;5047681;28;20447;-84
2023/03/20 05:29:51;;;;;;;1.43;1.30;;;;;;;8.24;100.00;153476.59;5033544;28;20814;-83
2023/03/20 05:32:37;;;;;;;1.57;1.40;;;;;;;8.25;100.00;153479.19;5025617;28;20451;-84
2023/03/20 05:35:11;;;;;;;2.27;1.20;;;;;;;8.28;100.00;153485.69;5039828;28;20459;-83
2023/03/20 05:37:47;;;;;;;2.00;1.60;;;;;;;8.28;100.00;153487.00;5022957;28;20467;-83
2023/03/20 05:40:32;;;;;;;1.60;1.50;;;;;;;8.29;100.00;153489.56;5032074;28;20459;-84
2023/03/20 05:43:18;;;;;;;1.67;1.37;;;;;;;8.27;100.00;153484.41;5032295;28;20467;-84
2023/03/20 05:46:03;;;;;;;2.53;1.50;;;;;;;8.27;100.00;153484.41;5031001;28;20440;-84
2023/03/20 05:48:47;;;;;;;2.50;1.73;;;;;;;8.29;100.00;153489.56;5025037;28;20460;-84
2023/03/20 05:51:33;;;;;;;2.10;1.90;;;;;;;8.29;100.00;153488.25;5023793;28;20448;-84
2023/03/20 05:54:23;;;;;;;2.23;1.60;;;;;;;8.31;100.00;153494.72;5029954;28;20520;-84
2023/03/20 05:57:16;;;;;;;1.80;1.50;;;;;;;8.29;100.00;153489.56;5045080;28;20472;-84
2023/03/20 06:00:10;;;;;;;2.10;1.57;;;;;;;8.29;100.00;153489.56;5033875;28;20510;-84
2023/03/20 06:02:40;;;;;;;1.80;1.40;;;;;;;8.27;100.00;153484.41;5053359;28;20454;-84
2023/03/20 06:05:35;;;;;;;1.70;1.60;;;;;;;8.29;100.00;153488.25;5022760;28;20467;-84
2023/03/20 06:08:04;;;;;;;2.40;2.10;;;;;;;8.32;100.00;153497.31;5035986;28;20461;-84
2023/03/20 06:10:31;;;;;;;2.73;1.83;;;;;;;8.31;100.00;153494.72;5068239;28;20580;-84
2023/03/20 06:12:59;;;;;;;2.53;2.17;;;;;;;8.36;100.00;153506.38;5039652;28;20490;-84
2023/03/20 06:15:27;;;;;;;2.10;1.90;;;;;;;8.36;100.00;153507.69;5040233;28;20462;-84
2023/03/20 06:18:01;;;;;;;2.20;2.00;;;;;;;8.34;100.00;153501.22;5046184;28;20863;-84
2023/03/20 06:20:28;;;;;;;2.17;1.87;;;;;;;8.38;100.00;153512.84;5043342;28;21121;-84
2023/03/20 06:22:55;;;;;;;2.67;2.17;;;;;;;8.39;100.00;153514.13;5054220;28;20452;-84
2023/03/20 06:25:24;;;;;;;3.23;2.60;;;;;;;8.41;100.00;153520.59;5046461;28;20451;-84
2023/03/20 06:27:51;;;;;;;3.07;2.63;;;;;;;8.41;100.00;153519.28;5057139;28;20859;-83
2023/03/20 06:30:20;;;;;;;2.73;2.53;;;;;;;8.41;100.00;153520.59;5044853;28;20478;-84
2023/03/20 06:32:47;;;;;;;2.80;2.60;;;;;;;8.44;100.00;153527.06;5038301;28;20986;-83
2023/03/20 06:35:16;;;;;;;2.50;2.13;;;;;;;8.47;100.00;153536.06;5046277;28;20490;-84
2023/03/20 06:37:46;;;;;;;2.80;2.13;;;;;;;8.51;100.00;153546.44;5025670;28;20796;-84
2023/03/20 06:40:20;;;;;;;3.43;2.50;;;;;;;8.51;100.00;153546.44;5055457;28;20526;-84
2023/03/20 06:42:48;;;;;;;2.60;2.27;;;;;;;8.54;100.00;153554.19;5042475;28;20521;-84
2023/03/20 06:45:16;;;;;;;2.57;2.20;;;;;;;8.60;100.00;153567.13;5054947;28;20448;-84
2023/03/20 06:47:56;;;;;;;2.73;1.90;;;;;;;8.58;100.00;153564.53;5061705;28;21084;-84
2023/03/20 06:50:22;;;;;;;2.40;1.93;;;;;;;8.61;100.00;153569.69;5053818;28;21043;-83
2023/03/20 06:52:50;;;;;;;2.30;1.90;;;;;;;8.62;100.00;153573.59;5055718;28;20575;-84
2023/03/20 06:55:47;;;;;;;2.80;1.70;;;;;;;8.71;100.00;153596.81;5032131;28;20447;-84
2023/03/20 06:58:15;;;;;;;2.43;2.10;;;;;;;8.74;100.00;153603.28;5038388;28;20785;-83
2023/03/20 07:00:42;;;;;;;2.13;1.90;;;;;;;8.75;100.00;153607.19;5036221;28;20822;-84
2023/03/20 07:03:10;;;;;;;3.03;2.40;;;;;;;8.80;100.00;153618.81;5043469;28;20453;-83
2023/03/20 07:05:37;;;;;;;2.57;2.07;;;;;;;8.85;100.00;153631.75;5037460;28;20457;-84
2023/03/20 07:08:07;;;;;;;2.40;2.20;;;;;;;8.89;100.00;153643.41;5036986;28;20479;-84
2023/03/20 07:10:34;;;;;;;2.70;2.23;;;;;;;8.96;100.00;153660.19;5036703;28;20472;-83
2023/03/20 07:13:01;;;;;;;3.17;2.33;;;;;;;9.06;100.00;153686.06;5017974;28;20523;-84
2023/03/20 07:15:29;;;;;;;2.60;2.30;;;;;;;9.15;100.00;153709.34;5036993;28;21033;-84
2023/03/20 07:17:56;;;;;;;2.50;2.30;;;;;;;9.25;100.00;153733.91;5033143;28;20507;-84
2023/03/20 07:20:26;;;;;;;3.07;2.77;;;;;;;9.31;100.00;153749.44;5020073;28;20471;-83
2023/03/20 07:22:54;;;;;;;2.37;2.17;;;;;;;9.36;100.00;153763.66;5018745;28;20788;-85
2023/03/20 07:25:24;;;;;;;2.63;1.90;;;;;;;9.36;100.00;153762.38;5024466;28;20484;-84
2023/03/20 07:27:51;;;;;;;2.90;2.60;;;;;;;9.43;100.00;153781.75;5015909;28;20458;-84
2023/03/20 07:30:21;;;;;;;2.70;2.30;;;;;;;9.45;100.00;153786.94;5053074;28;20456;-84
2023/03/20 07:32:50;;;;;;;2.23;1.83;;;;;;;9.47;100.00;153790.84;5016682;28;20479;-84
2023/03/20 07:35:19;;;;;;;2.67;2.43;;;;;;;9.42;100.00;153779.22;5033971;28;20508;-85
2023/03/20 07:37:45;;;;;;;3.30;2.57;;;;;;;9.43;100.00;153781.75;5018927;28;20556;-85
2023/03/20 07:40:13;;;;;;;2.53;2.30;;;;;;;9.42;100.00;153779.22;5018007;28;20937;-84
2023/03/20 07:43:03;;;;;;;2.77;2.17;;;;;;;9.40;100.00;153774.00;5019301;28;20453;-84
2023/03/20 07:46:01;;;;;;;4.60;2.60;;;;;;;9.36;100.00;153763.66;5031826;28;20449;-84
2023/03/20 07:48:30;;;;;;;3.40;2.33;;;;;;;9.39;100.00;153771.44;5021337;28;20460;-84
2023/03/20 07:50:56;;;;;;;3.00;2.20;;;;;;;9.50;100.00;153798.59;5034500;28;20542;-84
2023/03/20 07:53:23;;;;;;;3.37;2.23;;;;;;;9.52;100.00;153805.06;5024571;28;20515;-84
2023/03/20 07:55:50;;;;;;;2.60;2.13;;;;;;;9.56;100.00;153815.41;5023914;28;20451;-85
2023/03/20 07:58:17;;;;;;;2.70;2.50;;;;;;;9.65;100.00;153837.41;5025893;28;20470;-84
2023/03/20 08:00:44;;;;;;;2.30;2.10;;;;;;;9.66;100.00;153841.25;5023353;28;20460;-84
2023/03/20 08:03:10;;;;;;;3.80;2.77;;;;;;;9.72;100.00;153855.50;5036260;28;20780;-84
2023/03/20 08:05:39;;;;;;;2.63;1.73;;;;;;;9.80;100.00;153876.22;5024928;28;20491;-84
2023/03/20 08:08:06;;;;;;;2.50;2.00;;;;;;;9.84;100.00;153885.28;5020968;28;20455;-84
2023/03/20 08:10:32;;;;;;;2.50;2.13;;;;;;;9.91;100.00;153903.38;5074160;28;20593;-84
2023/03/20 08:13:00;;;;;;;2.47;2.27;;;;;;;10.00;100.00;153928.00;5041988;28;20538;-84
2023/03/20 08:15:27;;;;;;;2.83;2.00;;;;;;;10.03;100.00;153934.47;5040922;28;21001;-84
2023/03/20 08:17:56;;;;;;;3.17;2.40;;;;;;;10.16;100.00;153969.47;5050788;28;20528;-84
2023/03/20 08:20:23;;;;;;;2.63;2.40;;;;;;;10.21;100.00;153981.09;5047769;28;20456;-84
2023/03/20 08:22:52;;;;;;;2.07;1.80;;;;;;;10.26;100.00;153994.03;5041119;28;20479;-84
2023/03/20 08:25:19;;;;;;;3.37;2.43;;;;;;;10.21;100.00;153981.09;5031330;28;20451;-85
2023/03/20 08:27:46;;;;;;;2.90;2.43;;;;;;;10.23;100.00;153986.28;5039211;28;20482;-84
2023/03/20 08:30:13;;;;;;;3.87;2.97;;;;;;;10.27;100.00;153997.91;5046076;28;20462;-84
2023/03/20 08:32:40;;;;;;;3.57;2.50;;;;;;;10.26;100.00;153994.03;5074972;28;20543;-84
2023/03/20 08:35:08;;;;;;;2.90;2.60;;;;;;;10.24;100.00;153988.88;5058217;28;20485;-85
2023/03/20 08:37:36;;;;;;;2.43;2.20;;;;;;;10.22;100.00;153983.66;5057958;28;20933;-84
2023/03/20 08:40:06;;;;;;;3.50;2.40;;;;;;;10.29;100.00;154001.81;5041281;28;20447;-84
2023/03/20 08:42:33;;;;;;;3.13;2.50;;;;;;;10.26;100.00;153995.34;5056993;28;20450;-84
2023/03/20 08:44:59;;;;;;;2.80;2.20;;;;;;;10.33;100.00;154012.16;5040305;28;20499;-85
2023/03/20 08:47:26;;;;;;;2.97;2.67;;;;;;;10.38;100.00;154025.09;5057193;28;20447;-84
2023/03/20 08:49:53;;;;;;;2.23;1.70;;;;;;;10.39;100.00;154027.69;5043001;28;20483;-84
2023/03/20 08:52:19;;;;;;;2.97;2.10;;;;;;;10.53;100.00;154062.66;5058905;28;20501;-84
2023/03/20 08:54:46;;;;;;;2.00;1.80;;;;;;;10.60;100.00;154082.06;5045510;28;20518;-85
2023/03/20 08:57:14;;;;;;;2.80;2.30;;;;;;;10.62;100.00;154087.25;5059153;28;20439;-85
2023/03/20 08:59:41;;;;;;;3.20;1.67;;;;;;;10.71;100.00;154110.56;5022777;28;20466;-84
2023/03/20 09:02:10;;;;;;;2.57;2.37;;;;;;;10.80;100.00;154132.59;5062439;28;20460;-85
2023/03/20 09:04:36;;;;;;;3.20;2.60;;;;;;;10.86;100.00;154148.09;5056845;28;20480;-85
2023/03/20 09:07:03;;;;;;;3.03;2.50;;;;;;;10.93;100.00;154166.28;5041523;28;20514;-85
2023/03/20 09:09:31;;;;;;;5.00;2.30;;;;;;;10.90;100.00;154159.78;5054560;28;20863;-85
2023/03/20 09:11:58;;;;;;;2.57;2.37;;;;;;;11.00;100.00;154185.69;5064529;28;20955;-85
2023/03/20 09:14:27;;;;;;;3.07;2.17;;;;;;;11.02;100.00;154190.84;5063817;28;20473;-84
2023/03/20 09:16:54;;;;;;;2.73;2.30;;;;;;;11.16;100.00;154224.53;5065889;28;20443;-85
2023/03/20 09:19:20;;;;;;;2.10;1.70;;;;;;;11.20;100.00;154236.19;5064884;28;20952;-84
2023/03/20 09:21:47;;;;;;;2.50;1.70;;;;;;;11.32;100.00;154266.00;5058061;28;20541;-84
2023/03/20 09:24:15;;;;;;;2.23;1.80;;;;;;;11.34;100.00;154272.47;5059777;28;20451;-85
2023/03/20 09:26:41;;;;;;;2.30;1.63;;;;;;;11.31;100.00;154264.69;5060939;28;20540;-85
2023/03/20 09:29:08;;;;;;;2.47;1.77;;;;;;;11.32;100.00;154266.00;5063779;28;21151;-85
2023/03/20 09:31:36;;;;;;;4.40;1.80;;;;;;;11.33;100.00;154268.59;5043652;28;20489;-85
2023/03/20 09:34:03;;;;;;;3.33;2.00;;;;;;;11.39;100.00;154284.13;5061226;28;20549;-84
2023/03/20 09:36:30;;;;;;;2.17;1.97;;;;;;;11.32;100.00;154267.31;5067088;28;20449;-85
2023/03/20 09:38:56;;;;;;;1.97;1.50;;;;;;;11.30;100.00;154260.81;5063602;28;20487;-85
2023/03/20 09:41:25;;;;;;;2.50;1.80;;;;;;;11.31;99.37;154263.38;5060389;28;20451;-85
2023/03/20 09:44:04;;;;;;;2.20;1.70;;;;;;;11.38;100.00;154281.56;5060648;28;20453;-84
2023/03/20 09:46:41;;;;;;;2.17;1.80;;;;;;;11.37;100.00;154278.94;5059330;28;20917;-85
2023/03/20 09:49:17;;;;;;;2.80;2.20;;;;;;;11.41;100.00;154290.59;5065052;28;20454;-84
2023/03/20 09:51:48;;;;;;;2.73;1.93;;;;;;;11.41;100.00;154290.59;5061856;28;20439;-85
2023/03/20 09:54:19;;;;;;;3.23;2.23;;;;;;;11.42;100.00;154291.91;5051252;28;20484;-84
2023/03/20 09:56:46;;;;;;;3.43;2.13;;;;;;;11.41;100.00;154289.34;5058632;28;20896;-84
2023/03/20 09:59:14;;;;;;;2.70;2.20;;;;;;;11.44;100.00;154297.06;5062297;28;20443;-84
2023/03/20 10:01:47;;;;;;;2.53;2.23;;;;;;;11.47;98.63;154304.84;5059649;28;20462;-84
2023/03/20 10:04:14;;;;;;;2.27;2.00;;;;;;;11.52;100.00;154319.09;5045845;28;20501;-85
2023/03/20 10:06:41;;;;;;;2.70;2.10;;;;;;;11.53;100.00;154321.72;5058834;28;20451;-85
2023/03/20 10:09:15;;;;;;;1.80;1.57;;;;;;;11.51;100.00;154315.25;5039530;28;20475;-84
2023/03/20 10:11:54;;;;;;;3.50;2.03;;;;;;;11.55;100.00;154325.59;5058507;28;20440;-85
2023/03/20 10:14:25;;;;;;;2.67;2.03;;;;;;;11.51;100.00;154315.25;5046845;28;20454;-84
2023/03/20 10:17:02;;;;;;;2.97;2.03;;;;;;;11.47;100.00;154304.84;5060262;28;20488;-84
2023/03/20 10:19:32;;;;;;;3.60;2.10;;;;;;;11.49;100.00;154311.31;5033644;28;20446;-84
2023/03/20 10:22:02;;;;;;;2.90;2.43;;;;;;;11.49;100.00;154310.06;5038195;28;20456;-84
2023/03/20 10:24:32;;;;;;;5.10;3.67;;;;;;;11.48;99.97;154307.47;5046044;28;20466;-85
2023/03/20 10:27:03;;;;;;;2.77;2.30;;;;;;;11.55;99.50;154325.59;5052663;28;20597;-85
2023/03/20 10:29:37;;;;;;;2.43;1.83;;;;;;;11.58;97.43;154333.38;5039747;28;20451;-85
2023/03/20 10:32:11;;;;;;;1.90;1.57;;;;;;;11.59;97.00;154337.28;5037837;28;20439;-85
2023/03/20 10:34:50;;;;;;;2.00;1.60;;;;;;;11.65;98.84;154351.50;5053588;28;20924;-85
2023/03/20 10:37:33;;;;;;;1.90;1.50;;;;;;;11.61;98.23;154341.16;5040204;28;20444;-85
2023/03/20 10:40:10;;;;;;;2.40;1.77;;;;;;;11.64;97.13;154348.94;5054772;28;20989;-85
2023/03/20 10:42:40;;;;;;;4.77;2.27;;;;;;;11.67;100.00;154356.72;5053438;28;20557;-85
2023/03/20 10:45:27;;;;;;;2.30;1.87;;;;;;;11.59;95.24;154335.97;5054912;28;20454;-84
2023/03/20 10:47:55;;;;;;;2.60;2.00;;;;;;;11.71;100.00;154365.81;5038161;28;20483;-84
2023/03/20 10:50:24;;;;;;;2.60;1.80;;;;;;;11.64;100.00;154348.94;5054640;28;20466;-84
2023/03/20 10:52:52;;;;;;;2.27;1.63;;;;;;;11.56;97.61;154329.50;5039819;28;20451;-85
2023/03/20 10:55:21;;;;;;;2.30;1.90;;;;;;;11.60;99.23;154338.53;5056654;28;20478;-86
2023/03/20 10:57:55;;;;;;;3.23;2.10;;;;;;;11.59;99.42;154337.28;5040403;28;20458;-85
2023/03/20 11:00:23;;;;;;;2.67;2.13;;;;;;;11.58;100.00;154333.38;5055446;28;20459;-85
2023/03/20 11:02:50;;;;;;;2.60;1.50;;;;;;;11.45;96.51;154299.69;5038435;28;20441;-85
2023/03/20 11:05:25;;;;;;;1.70;1.30;;;;;;;11.50;98.91;154312.63;5054893;28;20455;-85
2023/03/20 11:08:01;;;;;;;2.93;2.43;;;;;;;11.43;95.84;154294.50;5041326;28;20446;-85
2023/03/20 11:10:28;;;;;;;2.33;1.60;;;;;;;11.43;96.24;154295.81;5049720;28;20483;-85
2023/03/20 11:12:54;;;;;;;2.20;1.20;;;;;;;11.45;97.55;154299.69;5021256;28;20443;-85
2023/03/20 11:15:24;;;;;;;4.00;1.70;;;;;;;11.49;100.00;154310.06;5021864;28;20487;-85
2023/03/20 11:17:53;;;;;;;1.90;1.33;;;;;;;11.35;95.92;154273.78;5049199;28;20452;-84
2023/03/20 11:20:20;;;;;;;2.73;2.00;;;;;;;11.42;93.36;154291.91;5018984;28;20868;-84
2023/03/20 11:22:49;;;;;;;2.50;1.70;;;;;;;11.40;91.91;154288.03;5018084;28;20461;-85
2023/03/20 11:25:29;;;;;;;3.00;2.70;;;;;;;11.46;93.90;154302.28;5051546;28;20531;-85
2023/03/20 11:27:56;;;;;;;2.60;2.10;;;;;;;11.56;90.34;154329.50;5018256;28;20483;-85
2023/03/20 11:30:23;;;;;;;2.50;2.10;;;;;;;11.62;90.85;154343.75;5019499;28;20468;-85
2023/03/20 11:32:51;;;;;;;3.53;2.50;;;;;;;11.61;89.33;154342.44;5017949;28;20466;-85
2023/03/20 11:35:27;;;;;;;2.63;2.23;;;;;;;11.65;90.52;154351.50;5017239;28;20582;-84
2023/03/20 11:38:08;;;;;;;2.90;2.50;;;;;;;11.50;88.41;154312.63;5052437;28;20459;-85
2023/03/20 11:40:36;;;;;;;2.37;2.17;;;;;;;11.40;88.63;154286.72;5020031;28;20457;-84
2023/03/20 11:43:05;;;;;;;2.77;2.50;;;;;;;11.36;90.20;154276.34;5052335;28;20865;-85